Spokane, WA

10:05 AM PST on February 09, 2016 (GMT -0800)
Craig Rd / White Rd | | Change Station
CLOSE
Current Station
Personal Weather Station
Location: Medical Lake, WA
Elevation: 2405 ft
Nearby Weather Stations

Elev 2405 ft 47.58 °N, 117.62 °W | Updated 13 seconds ago

Clear
Clear
37.0 °F
Feels Like 34 °F
N
3.6
Wind Variable Wind from North
Gusts 4.9 mph

Today
High -- | Low -- °F
--% Chance of Precip.
Yesterday
High -- | Low -- °F
Precip. -- in
Pressure 30.47 in
Visibility 10.0 miles
Clouds Clear
Windchill 34 °F
Dew Point 32 °F
Humidity 83%
Rainfall 0.00 in
Snow Depth Not available.
7:06 AM 5:03 PM
New Moon, 2% visible
METAR KSKA 091758Z AUTO 06006KT 10SM CLR 02/01 A3040 RMK AO2 SLP318 60000 T00240008 10024 21019 57008
Pressure 30.47 in
Visibility 10.0 miles
Clouds Clear
Windchill 34 °F
Dew Point 32 °F
Humidity 83%
Rainfall 0.00 in
Snow Depth Not available.
7:06 AM 5:03 PM
New Moon, 2% visible
METAR KSKA 091758Z AUTO 06006KT 10SM CLR 02/01 A3040 RMK AO2 SLP318 60000 T00240008 10024 21019 57008

10-Day Weather Forecast

Almanac

Astronomy

Feb. 09, 2016 Rise Set
Actual Time
Civil Twilight
Nautical Twilight
Astronomical Twilight
Moon
Length of Visible Light
Length of Day
Tomorrow will be .
, % of the Moon is Illuminated

Today's Extremes

State Highs State Lows

Community

WunderPhotos

Upload Photos

1,891,650 photos uploaded!

WunderBlog® & News

Nearby

Air Quality

  Air Quality AQ Index Pollutant
Not available.

Snow Depth

Station Depth Elevation

Earthquake Activity

City Distance Mag. Time & Date
Minimum magnitude displayed is 2.5.

Coastal Water Temperatures

Place Temperature

Stations

Nearby Weather Stations

Station Location Temp. Windchill Dew Point Humidity Wind Precip. Elev Updated Type
                   

Watches & Warnings

There are currently no watches in effect.